createdAt,value
2023-05-12T00:00:57.053Z,100714.84
2023-05-12T00:03:30.232Z,100720.44
2023-05-12T00:06:04.501Z,100716.97
2023-05-12T00:08:37.303Z,100718.88
2023-05-12T00:11:10.196Z,100722.50
2023-05-12T00:13:43.154Z,100729.03
2023-05-12T00:16:18.956Z,100722.94
2023-05-12T00:18:52.308Z,100730.34
2023-05-12T00:21:25.380Z,100725.16
2023-05-12T00:23:58.258Z,100729.88
2023-05-12T00:26:31.181Z,100731.81
2023-05-12T00:29:04.168Z,100728.50
2023-05-12T00:31:38.567Z,100739.34
2023-05-12T00:34:11.639Z,100743.84
2023-05-12T00:36:44.508Z,100734.22
2023-05-12T00:39:17.338Z,100738.84
2023-05-12T00:41:54.949Z,100736.41
2023-05-12T00:44:27.863Z,100740.09
2023-05-12T00:47:02.412Z,100734.97
2023-05-12T00:49:35.296Z,100738.66
2023-05-12T00:52:08.167Z,100745.09
2023-05-12T00:54:43.366Z,100733.66
2023-05-12T00:57:16.423Z,100736.53
2023-05-12T00:59:49.519Z,100744.81
2023-05-12T01:02:24.422Z,100741.31
2023-05-12T01:04:57.598Z,100751.25
2023-05-12T01:07:33.364Z,100749.63
2023-05-12T01:10:18.549Z,100743.47
2023-05-12T01:12:51.624Z,100755.28
2023-05-12T01:15:25.404Z,100747.41
2023-05-12T01:18:03.836Z,100754.53
2023-05-12T01:20:37.342Z,100753.88
2023-05-12T01:23:10.832Z,100747.88
2023-05-12T01:25:45.606Z,100746.16
2023-05-12T01:28:21.340Z,100756.94
2023-05-12T01:30:55.876Z,100752.53
2023-05-12T01:33:29.272Z,100752.59
2023-05-12T01:36:02.271Z,100762.56
2023-05-12T01:38:35.900Z,100754.72
2023-05-12T01:41:08.961Z,100754.91
2023-05-12T01:43:43.561Z,100752.41
2023-05-12T01:46:16.836Z,100759.69
2023-05-12T01:48:50.042Z,100766.91
2023-05-12T01:51:22.966Z,100762.63
2023-05-12T01:53:55.970Z,100764.63
2023-05-12T01:56:29.840Z,100764.78
2023-05-12T01:59:04.128Z,100760.50
2023-05-12T02:01:37.157Z,100772.19
2023-05-12T02:04:10.583Z,100769.59
2023-05-12T02:06:43.812Z,100766.19
2023-05-12T02:09:16.784Z,100772.44
2023-05-12T02:11:52.401Z,100773.53
2023-05-12T02:14:26.652Z,100770.94
2023-05-12T02:16:59.876Z,100771.13
2023-05-12T02:19:34.300Z,100778.34
2023-05-12T02:22:07.208Z,100773.06
2023-05-12T02:24:40.050Z,100774.09
2023-05-12T02:27:13.694Z,100777.72
2023-05-12T02:29:48.062Z,100770.75
2023-05-12T02:32:22.593Z,100774.50
2023-05-12T02:34:56.551Z,100781.72
2023-05-12T02:37:29.744Z,100779.97
2023-05-12T02:40:02.656Z,100781.91
2023-05-12T02:42:38.300Z,100776.66
2023-05-12T02:45:13.639Z,100781.22
2023-05-12T02:47:46.654Z,100778.59
2023-05-12T02:50:20.802Z,100785.81
2023-05-12T02:52:53.792Z,100792.16
2023-05-12T02:55:27.256Z,100794.88
2023-05-12T02:58:00.110Z,100793.19
2023-05-12T03:00:34.446Z,100786.19
2023-05-12T03:03:07.762Z,100789.78
2023-05-12T03:05:40.953Z,100793.38
2023-05-12T03:08:13.864Z,100792.53
2023-05-12T03:10:46.757Z,100796.19
2023-05-12T03:13:20.389Z,100800.66
2023-05-12T03:15:55.775Z,100793.59
2023-05-12T03:18:29.055Z,100793.59
2023-05-12T03:21:02.026Z,100792.69
2023-05-12T03:23:35.086Z,100792.69
2023-05-12T03:26:07.916Z,100797.19
2023-05-12T03:28:41.005Z,100797.19
2023-05-12T03:31:15.203Z,100793.66
2023-05-12T03:33:48.174Z,100799.72
2023-05-12T03:36:21.042Z,100803.28
2023-05-12T03:38:53.893Z,100804.97
2023-05-12T03:41:26.795Z,100803.94
2023-05-12T03:44:00.003Z,100808.31
2023-05-12T03:46:34.343Z,100804.66
2023-05-12T03:49:07.278Z,100801.88
2023-05-12T03:51:40.088Z,100805.34
2023-05-12T03:54:13.054Z,100806.94
2023-05-12T03:56:47.888Z,100807.72
2023-05-12T03:59:23.914Z,100806.56
2023-05-12T04:01:58.565Z,100810.81
2023-05-12T04:04:31.450Z,100810.50
2023-05-12T04:07:05.282Z,100812.03
2023-05-12T04:09:38.122Z,100810.91
2023-05-12T04:12:11.567Z,100813.28
2023-05-12T04:14:44.422Z,100820.03
2023-05-12T04:17:19.165Z,100819.72
2023-05-12T04:19:52.749Z,100819.31
2023-05-12T04:22:25.949Z,100811.81
2023-05-12T04:24:59.280Z,100819.88
2023-05-12T04:27:32.216Z,100819.94
2023-05-12T04:30:05.621Z,100825.03
2023-05-12T04:32:43.318Z,100824.59
2023-05-12T04:35:17.360Z,100831.25
2023-05-12T04:37:50.340Z,100828.16
2023-05-12T04:40:23.540Z,100827.69
2023-05-12T04:42:56.785Z,100829.03
2023-05-12T04:45:30.470Z,100828.91
2023-05-12T04:48:05.196Z,100828.81
2023-05-12T04:50:38.325Z,100838.09
2023-05-12T04:53:11.574Z,100837.56
2023-05-12T04:55:46.104Z,100832.19
2023-05-12T04:58:19.137Z,100842.03
2023-05-12T05:00:53.989Z,100832.81
2023-05-12T05:03:28.490Z,100839.59
2023-05-12T05:06:01.568Z,100837.56
2023-05-12T05:08:34.662Z,100844.25
2023-05-12T05:11:10.256Z,100843.81
2023-05-12T05:13:43.301Z,100836.00
2023-05-12T05:16:16.358Z,100838.84
2023-05-12T05:18:50.898Z,100835.53
2023-05-12T05:21:23.960Z,100842.06
2023-05-12T05:23:56.928Z,100844.97
2023-05-12T05:26:29.937Z,100839.88
2023-05-12T05:29:02.897Z,100842.06
2023-05-12T05:31:36.000Z,100852.16
2023-05-12T05:34:10.480Z,100843.47
2023-05-12T05:36:43.448Z,100842.00
2023-05-12T05:39:16.301Z,100844.88
2023-05-12T05:41:49.160Z,100841.50
2023-05-12T05:44:22.204Z,100850.50
2023-05-12T05:46:55.429Z,100849.72
2023-05-12T05:49:32.055Z,100849.88
2023-05-12T05:52:06.996Z,100851.69
2023-05-12T05:54:40.492Z,100851.03
2023-05-12T05:57:13.423Z,100855.72
2023-05-12T05:59:46.448Z,100862.22
2023-05-12T06:02:23.231Z,100856.94
2023-05-12T06:04:57.657Z,100850.03
2023-05-12T06:07:30.531Z,100861.78
2023-05-12T06:10:04.262Z,100864.47
2023-05-12T06:12:37.312Z,100860.06
2023-05-12T06:15:11.230Z,100862.00
2023-05-12T06:17:44.104Z,100871.13
2023-05-12T06:20:18.456Z,100871.34
2023-05-12T06:22:51.265Z,100866.88
2023-05-12T06:25:24.235Z,100866.28
2023-05-12T06:27:57.146Z,100871.63
2023-05-12T06:30:29.993Z,100877.09
2023-05-12T06:33:03.015Z,100864.03
2023-05-12T06:35:37.601Z,100869.41
2023-05-12T06:38:11.907Z,100871.25
2023-05-12T06:40:44.799Z,100878.69
2023-05-12T06:43:17.797Z,100873.41
2023-05-12T06:45:51.660Z,100865.72
2023-05-12T06:48:24.582Z,100865.22
2023-05-12T06:50:58.923Z,100859.91
2023-05-12T06:53:37.644Z,100864.25
2023-05-12T06:56:11.451Z,100857.97
2023-05-12T06:58:44.626Z,100865.88
2023-05-12T07:01:17.528Z,100870.38
2023-05-12T07:03:50.464Z,100867.91
2023-05-12T07:06:25.297Z,100863.88
2023-05-12T07:08:58.500Z,100864.41
2023-05-12T07:11:31.720Z,100865.25
2023-05-12T07:14:04.596Z,100862.50
2023-05-12T07:16:37.850Z,100862.69
2023-05-12T07:19:10.832Z,100863.94
2023-05-12T07:21:45.160Z,100869.53
2023-05-12T07:24:18.084Z,100853.06
2023-05-12T07:26:50.943Z,100862.28
2023-05-12T07:29:23.801Z,100871.19
2023-05-12T07:31:57.006Z,100870.84
2023-05-12T07:34:29.892Z,100873.69
2023-05-12T07:37:06.424Z,100872.38
2023-05-12T07:39:39.646Z,100861.31
2023-05-12T07:42:12.540Z,100854.28
2023-05-12T07:44:46.198Z,100861.72
2023-05-12T07:47:19.067Z,100866.06
2023-05-12T07:49:51.938Z,100868.41
2023-05-12T07:52:26.234Z,100869.38
2023-05-12T07:54:59.135Z,100870.25
2023-05-12T07:57:32.011Z,100868.38
2023-05-12T08:00:05.589Z,100873.44
2023-05-12T08:02:47.209Z,100873.19
2023-05-12T08:05:20.884Z,100864.16
2023-05-12T08:07:55.350Z,100864.13
2023-05-12T08:10:31.774Z,100859.63
2023-05-12T08:13:04.678Z,100860.66
2023-05-12T08:15:37.867Z,100864.25
2023-05-12T08:18:11.068Z,100856.81
2023-05-12T08:20:44.031Z,100854.53
2023-05-12T08:23:18.827Z,100862.41
2023-05-12T08:25:51.677Z,100854.47
2023-05-12T08:28:24.590Z,100846.69
2023-05-12T08:30:57.707Z,100863.22
2023-05-12T08:33:30.614Z,100860.91
2023-05-12T08:36:03.825Z,100856.41
2023-05-12T08:38:37.905Z,100856.38
2023-05-12T08:41:17.915Z,100842.31
2023-05-12T08:43:51.969Z,100846.47
2023-05-12T08:46:26.786Z,100854.72
2023-05-12T08:49:01.888Z,100860.22
2023-05-12T08:51:39.224Z,100849.50
2023-05-12T08:54:14.704Z,100857.38
2023-05-12T08:59:24.821Z,100857.00
2023-05-12T09:01:59.942Z,100865.03
2023-05-12T09:04:33.287Z,100853.91
2023-05-12T09:07:07.307Z,100854.59
2023-05-12T09:09:43.810Z,100864.53
2023-05-12T09:12:19.621Z,100835.75
2023-05-12T09:14:59.733Z,100866.81
2023-05-12T09:17:32.681Z,100868.31
2023-05-12T09:20:09.881Z,100878.28
2023-05-12T09:22:48.156Z,100871.31
2023-05-12T09:25:23.138Z,100894.47
2023-05-12T09:27:57.712Z,100867.44
2023-05-12T09:30:31.876Z,100874.84
2023-05-12T09:33:08.575Z,100854.16
2023-05-12T09:35:42.612Z,100866.78
2023-05-12T09:38:16.116Z,100875.13
2023-05-12T09:40:50.438Z,100854.03
2023-05-12T09:43:23.535Z,100877.31
2023-05-12T09:45:56.573Z,100849.28
2023-05-12T09:48:31.391Z,100870.50
2023-05-12T09:51:04.390Z,100855.19
2023-05-12T09:53:44.341Z,100851.00
2023-05-12T09:56:22.272Z,100850.25
2023-05-12T09:58:56.998Z,100853.75
2023-05-12T10:01:30.283Z,100855.13
2023-05-12T10:04:07.030Z,100847.41
2023-05-12T10:06:43.247Z,100837.31
2023-05-12T10:09:21.589Z,100833.53
2023-05-12T10:11:56.577Z,100855.06
2023-05-12T10:14:30.326Z,100844.75
2023-05-12T10:17:03.615Z,100841.84
2023-05-12T10:19:36.804Z,100844.97
2023-05-12T10:22:11.681Z,100847.41
2023-05-12T10:24:46.957Z,100837.59
2023-05-12T10:27:22.974Z,100839.22
2023-05-12T10:29:56.811Z,100841.09
2023-05-12T10:32:29.874Z,100845.50
2023-05-12T10:35:13.191Z,100840.19
2023-05-12T10:37:48.228Z,100834.78
2023-05-12T10:40:27.060Z,100836.28
2023-05-12T10:43:01.962Z,100823.84
2023-05-12T10:45:38.439Z,100830.66
2023-05-12T10:48:16.604Z,100833.97
2023-05-12T10:50:54.465Z,100823.38
2023-05-12T10:53:41.443Z,100839.78
2023-05-12T10:56:26.388Z,100825.44
2023-05-12T10:59:20.860Z,100829.53
2023-05-12T11:02:03.674Z,100831.03
2023-05-12T11:04:42.259Z,100829.25
2023-05-12T11:07:17.203Z,100828.22
2023-05-12T11:09:58.494Z,100830.81
2023-05-12T11:12:33.401Z,100824.88
2023-05-12T11:15:08.905Z,100822.25
2023-05-12T11:17:42.101Z,100813.66
2023-05-12T11:20:24.100Z,100821.31
2023-05-12T11:22:57.330Z,100822.59
2023-05-12T11:25:30.357Z,100833.13
2023-05-12T11:28:03.634Z,100835.88
2023-05-12T11:30:38.014Z,100825.78
2023-05-12T11:33:10.959Z,100827.88
2023-05-12T11:35:43.689Z,100842.78
2023-05-12T11:38:17.424Z,100827.00
2023-05-12T11:40:50.417Z,100825.56
2023-05-12T11:43:23.493Z,100835.44
2023-05-12T11:45:57.624Z,100832.22
2023-05-12T11:48:35.993Z,100835.47
2023-05-12T11:51:09.182Z,100837.91
2023-05-12T11:53:42.068Z,100832.75
2023-05-12T11:56:19.487Z,100845.94
2023-05-12T11:58:56.880Z,100835.78
2023-05-12T12:01:31.477Z,100832.81
2023-05-12T12:04:04.430Z,100827.09
2023-05-12T12:06:45.112Z,100830.31
2023-05-12T12:09:18.031Z,100826.75
2023-05-12T12:11:50.928Z,100837.81
2023-05-12T12:14:23.813Z,100819.47
2023-05-12T12:16:58.341Z,100822.03
2023-05-12T12:19:31.638Z,100825.91
2023-05-12T12:22:04.758Z,100825.63
2023-05-12T12:24:37.670Z,100818.00
2023-05-12T12:27:10.523Z,100818.72
2023-05-12T12:29:43.413Z,100827.78
2023-05-12T12:32:17.756Z,100829.31
2023-05-12T12:34:50.650Z,100830.47
2023-05-12T12:37:23.476Z,100828.91
2023-05-12T12:39:56.354Z,100831.75
2023-05-12T12:42:29.285Z,100817.72
2023-05-12T12:45:02.516Z,100825.00
2023-05-12T12:47:36.881Z,100828.31
2023-05-12T12:50:10.888Z,100817.81
2023-05-12T12:52:43.794Z,100819.53
2023-05-12T12:55:16.676Z,100825.09
2023-05-12T12:57:49.536Z,100812.03
2023-05-12T13:00:23.551Z,100810.59
2023-05-12T13:02:58.137Z,100808.28
2023-05-12T13:05:31.125Z,100813.31
2023-05-12T13:08:04.058Z,100808.13
2023-05-12T13:10:37.474Z,100818.13
2023-05-12T13:13:11.942Z,100806.63
2023-05-12T13:15:45.061Z,100800.38
2023-05-12T13:18:19.277Z,100793.66
2023-05-12T13:20:52.593Z,100821.13
2023-05-12T13:23:25.257Z,100801.53
2023-05-12T13:25:58.956Z,100803.59
2023-05-12T13:28:31.876Z,100826.88
2023-05-12T13:31:04.931Z,100801.34
2023-05-12T13:33:39.339Z,100787.69
2023-05-12T13:36:13.366Z,100781.53
2023-05-12T13:38:49.081Z,100783.53
2023-05-12T13:41:21.978Z,100779.09
2023-05-12T13:43:54.841Z,100777.66
2023-05-12T13:46:27.737Z,100786.59
2023-05-12T13:49:02.115Z,100778.50
2023-05-12T13:51:34.940Z,100797.03
2023-05-12T13:54:07.858Z,100765.72
2023-05-12T13:56:40.771Z,100782.47
2023-05-12T13:59:14.211Z,100777.75
2023-05-12T14:02:35.943Z,100766.34
2023-05-12T14:05:10.898Z,100785.38
2023-05-12T14:07:43.834Z,100779.34
2023-05-12T14:10:16.734Z,100788.88
2023-05-12T14:12:49.954Z,100783.00
2023-05-12T14:18:47.857Z,100780.66
2023-05-12T14:25:30.778Z,100778.56
2023-05-12T14:28:03.795Z,100773.28
2023-05-12T14:30:37.480Z,100777.09
2023-05-12T14:33:10.543Z,100771.94
2023-05-12T14:35:52.848Z,100781.81
2023-05-12T14:38:32.489Z,100782.53
2023-05-12T14:41:08.675Z,100779.81
2023-05-12T14:43:41.563Z,100776.97
2023-05-12T14:46:14.522Z,100783.13
2023-05-12T14:48:48.879Z,100777.81
2023-05-12T14:51:21.846Z,100789.09
2023-05-12T14:53:54.696Z,100777.16
2023-05-12T14:56:29.264Z,100775.19
2023-05-12T14:59:02.176Z,100764.97
2023-05-12T15:01:35.218Z,100771.66
2023-05-12T15:04:08.427Z,100772.78
2023-05-12T15:06:41.382Z,100773.03
2023-05-12T15:09:14.291Z,100775.75
2023-05-12T15:11:49.500Z,100773.28
2023-05-12T15:16:55.238Z,100777.28
2023-05-12T15:19:28.158Z,100782.97
2023-05-12T15:22:01.065Z,100770.34
2023-05-12T15:24:34.160Z,100777.53
2023-05-12T15:27:08.353Z,100779.09
2023-05-12T15:29:42.248Z,100772.81
2023-05-12T15:32:15.761Z,100772.81
2023-05-12T15:34:48.818Z,100771.84
2023-05-12T15:37:21.858Z,100781.69
2023-05-12T15:39:54.751Z,100795.41
2023-05-12T15:42:33.174Z,100785.94
2023-05-12T15:45:07.629Z,100779.53
2023-05-12T15:47:40.924Z,100767.47
2023-05-12T15:50:16.275Z,100772.66
2023-05-12T15:52:49.700Z,100772.16
2023-05-12T15:55:22.797Z,100774.50
2023-05-12T15:57:57.473Z,100768.38
2023-05-12T16:00:30.446Z,100771.06
2023-05-12T16:03:04.043Z,100769.09
2023-05-12T16:05:38.557Z,100770.69
2023-05-12T16:08:11.993Z,100771.44
2023-05-12T16:10:45.028Z,100772.03
2023-05-12T16:13:19.359Z,100768.22
2023-05-12T16:15:52.282Z,100782.63
2023-05-12T16:18:25.240Z,100768.47
2023-05-12T16:20:58.580Z,100773.66
2023-05-12T16:23:31.587Z,100782.50
2023-05-12T16:26:04.564Z,100773.53
2023-05-12T16:28:38.879Z,100775.38
2023-05-12T16:31:12.860Z,100777.00
2023-05-12T16:33:45.828Z,100778.44
2023-05-12T16:36:19.771Z,100779.06
2023-05-12T16:38:52.929Z,100775.97
2023-05-12T16:41:27.956Z,100771.91
2023-05-12T16:44:03.128Z,100782.13
2023-05-12T16:46:40.792Z,100788.78
2023-05-12T16:49:14.581Z,100780.78
2023-05-12T16:51:47.826Z,100783.72
2023-05-12T16:54:20.711Z,100788.16
2023-05-12T16:56:53.600Z,100787.41
2023-05-12T16:59:27.970Z,100781.97
2023-05-12T17:02:02.187Z,100783.84
2023-05-12T17:04:35.310Z,100788.41
2023-05-12T17:07:08.275Z,100797.50
2023-05-12T17:09:41.388Z,100785.94
2023-05-12T17:12:14.380Z,100795.03
2023-05-12T17:14:59.343Z,100799.59
2023-05-12T17:17:37.223Z,100794.19
2023-05-12T17:20:11.674Z,100792.44
2023-05-12T17:22:47.283Z,100791.81
2023-05-12T17:25:20.644Z,100798.34
2023-05-12T17:27:53.779Z,100802.13
2023-05-12T17:30:28.229Z,100803.22
2023-05-12T17:33:01.799Z,100812.44
2023-05-12T17:35:34.817Z,100811.94
2023-05-12T17:38:07.969Z,100806.84
2023-05-12T17:40:41.031Z,100819.03
2023-05-12T17:43:15.843Z,100815.94
2023-05-12T17:45:50.168Z,100802.97
2023-05-12T17:48:23.789Z,100809.72
2023-05-12T17:50:56.717Z,100821.13
2023-05-12T17:53:29.745Z,100825.28
2023-05-12T17:56:02.719Z,100825.72
2023-05-12T17:58:35.605Z,100820.03
2023-05-12T18:01:10.062Z,100823.28
2023-05-12T18:03:43.470Z,100831.84
2023-05-12T18:06:16.187Z,100828.06
2023-05-12T18:08:49.110Z,100834.56
2023-05-12T18:11:21.991Z,100833.41
2023-05-12T18:13:54.933Z,100833.06
2023-05-12T18:16:29.802Z,100828.22
2023-05-12T18:19:03.589Z,100833.19
2023-05-12T18:21:36.790Z,100837.44
2023-05-12T18:24:09.879Z,100838.81
2023-05-12T18:26:43.247Z,100838.41
2023-05-12T18:29:16.155Z,100839.81
2023-05-12T18:31:50.561Z,100835.91
2023-05-12T18:34:23.524Z,100839.91
2023-05-12T18:36:56.801Z,100841.19
2023-05-12T18:39:29.706Z,100846.16
2023-05-12T18:42:02.632Z,100849.25
2023-05-12T18:44:35.514Z,100855.94
2023-05-12T18:47:10.028Z,100854.63
2023-05-12T18:49:43.029Z,100859.56
2023-05-12T18:52:15.875Z,100860.84
2023-05-12T18:54:49.802Z,100865.78
2023-05-12T18:57:22.897Z,100875.19
2023-05-12T18:59:55.827Z,100868.44
2023-05-12T19:02:31.664Z,100876.94
2023-05-12T19:05:05.134Z,100875.63
2023-05-12T19:07:37.919Z,100867.31
2023-05-12T19:10:11.213Z,100870.06
2023-05-12T19:12:44.249Z,100872.38
2023-05-12T19:15:17.773Z,100880.88
2023-05-12T19:17:51.901Z,100882.31
2023-05-12T19:20:24.755Z,100879.91
2023-05-12T19:22:59.707Z,100878.38
2023-05-12T19:25:32.722Z,100874.31
2023-05-12T19:28:10.328Z,100877.38
2023-05-12T19:30:43.478Z,100886.75
2023-05-12T19:33:17.976Z,100881.66
2023-05-12T19:35:50.984Z,100882.88
2023-05-12T19:38:23.954Z,100883.16
2023-05-12T19:40:56.889Z,100885.28
2023-05-12T19:43:29.721Z,100890.00
2023-05-12T19:46:02.710Z,100889.44
2023-05-12T19:48:36.972Z,100890.66
2023-05-12T19:51:09.784Z,100892.78
2023-05-12T19:53:43.460Z,100891.22
2023-05-12T19:56:16.117Z,100886.34
2023-05-12T19:58:49.080Z,100890.81
2023-05-12T20:01:22.114Z,100893.88
2023-05-12T20:03:56.956Z,100888.75
2023-05-12T20:06:29.849Z,100889.03
2023-05-12T20:09:02.695Z,100884.81
2023-05-12T20:11:35.570Z,100887.78
2023-05-12T20:14:08.671Z,100896.13
2023-05-12T20:16:41.619Z,100891.97
2023-05-12T20:19:17.069Z,100886.84
2023-05-12T20:21:49.988Z,100894.28
2023-05-12T20:24:23.210Z,100895.53
2023-05-12T20:26:56.591Z,100899.34
2023-05-12T20:29:30.279Z,100891.00
2023-05-12T20:32:03.398Z,100899.78
2023-05-12T20:34:37.708Z,100893.88
2023-05-12T20:37:10.578Z,100896.94
2023-05-12T20:39:46.404Z,100899.03
2023-05-12T20:42:19.290Z,100900.25
2023-05-12T20:44:52.180Z,100900.50
2023-05-12T20:47:25.256Z,100895.47
2023-05-12T20:50:00.811Z,100898.41
2023-05-12T20:52:33.867Z,100897.72
2023-05-12T20:55:08.207Z,100893.53
2023-05-12T20:57:41.347Z,100896.56
2023-05-12T21:00:15.173Z,100896.75
2023-05-12T21:02:51.981Z,100892.50
2023-05-12T21:05:26.405Z,100895.44
2023-05-12T21:07:59.869Z,100897.44
2023-05-12T21:10:34.658Z,100904.78
2023-05-12T21:13:07.573Z,100905.06
2023-05-12T21:15:40.444Z,100905.22
2023-05-12T21:18:13.415Z,100904.56
2023-05-12T21:20:47.801Z,100898.47
2023-05-12T21:23:20.651Z,100908.44
2023-05-12T21:25:53.845Z,100902.47
2023-05-12T21:28:27.377Z,100903.47
2023-05-12T21:31:00.271Z,100906.41
2023-05-12T21:33:33.758Z,100909.25
2023-05-12T21:36:09.828Z,100907.63
2023-05-12T21:38:42.764Z,100902.41
2023-05-12T21:41:15.692Z,100907.06
2023-05-12T21:43:48.494Z,100910.88
2023-05-12T21:46:21.422Z,100906.66
2023-05-12T21:48:54.350Z,100911.34
2023-05-12T21:51:29.217Z,100913.31
2023-05-12T21:54:02.248Z,100917.09
2023-05-12T21:56:35.212Z,100915.47
2023-05-12T21:59:08.048Z,100918.31
2023-05-12T22:01:40.957Z,100914.88
2023-05-12T22:04:13.903Z,100914.19
2023-05-12T22:06:48.359Z,100920.56
2023-05-12T22:09:21.927Z,100918.06
2023-05-12T22:11:54.847Z,100917.25
2023-05-12T22:14:27.807Z,100913.88
2023-05-12T22:17:02.464Z,100915.91
2023-05-12T22:19:35.530Z,100929.50
2023-05-12T22:22:09.785Z,100929.66
2023-05-12T22:24:43.821Z,100924.44
2023-05-12T22:27:21.102Z,100924.59
2023-05-12T22:29:55.088Z,100927.41
2023-05-12T22:32:27.938Z,100930.25
2023-05-12T22:35:00.795Z,100926.78
2023-05-12T22:37:35.028Z,100931.44
2023-05-12T22:40:09.253Z,100930.69
2023-05-12T22:42:42.052Z,100930.84
2023-05-12T22:45:14.959Z,100932.75
2023-05-12T22:47:47.820Z,100927.59
2023-05-12T22:50:21.245Z,100923.25
2023-05-12T22:52:57.384Z,100928.78
2023-05-12T22:55:31.383Z,100936.09
2023-05-12T22:58:04.539Z,100924.59
2023-05-12T23:00:37.477Z,100928.41
2023-05-12T23:03:10.514Z,100930.34
2023-05-12T23:05:43.497Z,100928.75
2023-05-12T23:08:17.773Z,100930.72
2023-05-12T23:10:50.765Z,100936.16
2023-05-12T23:13:23.603Z,100938.97
2023-05-12T23:15:56.453Z,100943.59
2023-05-12T23:18:29.316Z,100934.03
2023-05-12T23:21:02.264Z,100934.25
2023-05-12T23:23:37.099Z,100935.41
2023-05-12T23:26:10.352Z,100931.94
2023-05-12T23:28:43.202Z,100938.28
2023-05-12T23:31:19.288Z,100933.16
2023-05-12T23:33:52.255Z,100934.22
2023-05-12T23:36:25.116Z,100935.31
2023-05-12T23:38:59.329Z,100939.16
2023-05-12T23:41:33.984Z,100932.03
2023-05-12T23:44:06.849Z,100927.78
2023-05-12T23:46:39.714Z,100927.84
2023-05-12T23:49:12.544Z,100920.78
2023-05-12T23:51:45.436Z,100920.06
2023-05-12T23:54:19.574Z,100916.59
2023-05-12T23:56:52.463Z,100919.41
2023-05-12T23:59:25.497Z,100918.59
